sensor_id;sensor_type;location;lat;lon;timestamp;P1;durP1;ratioP1;P2;durP2;ratioP2
7563;SDS011;3823;53.586;10.040;2023-02-11T00:01:05;37.97;;;23.27;;
7563;SDS011;3823;53.586;10.040;2023-02-11T00:03:35;45.25;;;23.52;;
7563;SDS011;3823;53.586;10.040;2023-02-11T00:06:02;42.90;;;22.05;;
7563;SDS011;3823;53.586;10.040;2023-02-11T00:08:30;41.20;;;23.17;;
7563;SDS011;3823;53.586;10.040;2023-02-11T00:10:56;48.30;;;23.30;;
7563;SDS011;3823;53.586;10.040;2023-02-11T00:13:22;48.13;;;22.60;;
7563;SDS011;3823;53.586;10.040;2023-02-11T00:15:48;44.72;;;22.67;;
7563;SDS011;3823;53.586;10.040;2023-02-11T00:18:14;50.55;;;23.85;;
7563;SDS011;3823;53.586;10.040;2023-02-11T00:20:40;45.15;;;22.73;;
7563;SDS011;3823;53.586;10.040;2023-02-11T00:23:06;51.08;;;24.80;;
7563;SDS011;3823;53.586;10.040;2023-02-11T00:25:32;44.65;;;21.92;;
7563;SDS011;3823;53.586;10.040;2023-02-11T00:27:58;51.17;;;23.00;;
7563;SDS011;3823;53.586;10.040;2023-02-11T00:30:23;42.55;;;22.77;;
7563;SDS011;3823;53.586;10.040;2023-02-11T00:32:49;44.53;;;23.38;;
7563;SDS011;3823;53.586;10.040;2023-02-11T00:35:14;49.55;;;23.88;;
7563;SDS011;3823;53.586;10.040;2023-02-11T00:37:40;57.95;;;24.40;;
7563;SDS011;3823;53.586;10.040;2023-02-11T00:40:06;49.42;;;22.30;;
7563;SDS011;3823;53.586;10.040;2023-02-11T00:42:32;63.60;;;26.45;;
7563;SDS011;3823;53.586;10.040;2023-02-11T00:44:59;48.75;;;23.17;;
7563;SDS011;3823;53.586;10.040;2023-02-11T00:47:25;52.10;;;22.20;;
7563;SDS011;3823;53.586;10.040;2023-02-11T00:49:51;45.60;;;24.00;;
7563;SDS011;3823;53.586;10.040;2023-02-11T00:52:16;47.33;;;24.45;;
7563;SDS011;3823;53.586;10.040;2023-02-11T00:54:42;48.85;;;24.95;;
7563;SDS011;3823;53.586;10.040;2023-02-11T00:57:07;43.67;;;22.75;;
7563;SDS011;3823;53.586;10.040;2023-02-11T00:59:33;49.55;;;24.58;;
7563;SDS011;3823;53.586;10.040;2023-02-11T01:01:58;54.63;;;24.58;;
7563;SDS011;3823;53.586;10.040;2023-02-11T01:04:24;48.72;;;24.92;;
7563;SDS011;3823;53.586;10.040;2023-02-11T01:06:50;52.95;;;24.48;;
7563;SDS011;3823;53.586;10.040;2023-02-11T01:09:15;51.83;;;25.55;;
7563;SDS011;3823;53.586;10.040;2023-02-11T01:11:41;42.13;;;23.08;;
7563;SDS011;3823;53.586;10.040;2023-02-11T01:14:07;47.70;;;24.52;;
7563;SDS011;3823;53.586;10.040;2023-02-11T01:16:33;47.28;;;23.30;;
7563;SDS011;3823;53.586;10.040;2023-02-11T01:18:58;45.70;;;22.70;;
7563;SDS011;3823;53.586;10.040;2023-02-11T01:21:24;47.35;;;23.83;;
7563;SDS011;3823;53.586;10.040;2023-02-11T01:23:50;50.58;;;25.55;;
7563;SDS011;3823;53.586;10.040;2023-02-11T01:26:16;45.65;;;24.88;;
7563;SDS011;3823;53.586;10.040;2023-02-11T01:28:42;47.67;;;26.77;;
7563;SDS011;3823;53.586;10.040;2023-02-11T01:31:07;50.65;;;25.85;;
7563;SDS011;3823;53.586;10.040;2023-02-11T01:33:33;52.22;;;24.35;;
7563;SDS011;3823;53.586;10.040;2023-02-11T01:35:59;60.38;;;26.52;;
7563;SDS011;3823;53.586;10.040;2023-02-11T01:41:05;51.80;;;26.63;;
7563;SDS011;3823;53.586;10.040;2023-02-11T01:43:35;50.58;;;26.02;;
7563;SDS011;3823;53.586;10.040;2023-02-11T01:48:48;57.15;;;26.23;;
7563;SDS011;3823;53.586;10.040;2023-02-11T01:51:23;45.83;;;24.05;;
7563;SDS011;3823;53.586;10.040;2023-02-11T01:53:51;53.15;;;26.70;;
7563;SDS011;3823;53.586;10.040;2023-02-11T01:56:37;46.60;;;25.40;;
7563;SDS011;3823;53.586;10.040;2023-02-11T01:59:28;55.15;;;26.55;;
7563;SDS011;3823;53.586;10.040;2023-02-11T02:01:57;47.38;;;26.98;;
7563;SDS011;3823;53.586;10.040;2023-02-11T02:04:31;53.70;;;26.27;;
7563;SDS011;3823;53.586;10.040;2023-02-11T02:07:07;56.00;;;25.45;;
7563;SDS011;3823;53.586;10.040;2023-02-11T02:09:39;56.80;;;27.23;;
7563;SDS011;3823;53.586;10.040;2023-02-11T02:12:08;55.63;;;26.75;;
7563;SDS011;3823;53.586;10.040;2023-02-11T02:14:37;63.05;;;27.83;;
7563;SDS011;3823;53.586;10.040;2023-02-11T02:17:04;49.40;;;24.73;;
7563;SDS011;3823;53.586;10.040;2023-02-11T02:30:16;53.97;;;27.20;;
7563;SDS011;3823;53.586;10.040;2023-02-11T02:33:26;46.28;;;26.00;;
7563;SDS011;3823;53.586;10.040;2023-02-11T02:43:36;49.17;;;23.67;;
7563;SDS011;3823;53.586;10.040;2023-02-11T02:48:41;54.92;;;24.45;;
7563;SDS011;3823;53.586;10.040;2023-02-11T03:07:32;40.35;;;21.92;;
7563;SDS011;3823;53.586;10.040;2023-02-11T03:10:20;43.05;;;20.83;;
7563;SDS011;3823;53.586;10.040;2023-02-11T03:12:50;47.83;;;22.45;;
7563;SDS011;3823;53.586;10.040;2023-02-11T03:15:18;53.03;;;23.20;;
7563;SDS011;3823;53.586;10.040;2023-02-11T03:17:46;47.35;;;20.45;;
7563;SDS011;3823;53.586;10.040;2023-02-11T03:20:15;46.85;;;21.67;;
7563;SDS011;3823;53.586;10.040;2023-02-11T03:22:45;52.88;;;23.33;;
7563;SDS011;3823;53.586;10.040;2023-02-11T03:25:18;43.83;;;23.05;;
7563;SDS011;3823;53.586;10.040;2023-02-11T03:27:51;54.35;;;24.25;;
7563;SDS011;3823;53.586;10.040;2023-02-11T03:30:25;55.72;;;24.40;;
7563;SDS011;3823;53.586;10.040;2023-02-11T03:33:10;40.15;;;23.00;;
7563;SDS011;3823;53.586;10.040;2023-02-11T03:35:45;48.25;;;22.50;;
7563;SDS011;3823;53.586;10.040;2023-02-11T03:38:18;58.80;;;23.10;;
7563;SDS011;3823;53.586;10.040;2023-02-11T03:40:47;47.63;;;20.70;;
7563;SDS011;3823;53.586;10.040;2023-02-11T03:43:18;43.10;;;20.92;;
7563;SDS011;3823;53.586;10.040;2023-02-11T03:45:47;48.38;;;22.00;;
7563;SDS011;3823;53.586;10.040;2023-02-11T03:48:15;45.25;;;19.90;;
7563;SDS011;3823;53.586;10.040;2023-02-11T03:50:45;41.63;;;19.70;;
7563;SDS011;3823;53.586;10.040;2023-02-11T03:53:13;40.42;;;18.48;;
7563;SDS011;3823;53.586;10.040;2023-02-11T03:55:39;48.90;;;20.00;;
7563;SDS011;3823;53.586;10.040;2023-02-11T03:58:07;38.25;;;18.88;;
7563;SDS011;3823;53.586;10.040;2023-02-11T04:00:34;46.67;;;19.45;;
7563;SDS011;3823;53.586;10.040;2023-02-11T04:03:02;45.28;;;19.83;;
7563;SDS011;3823;53.586;10.040;2023-02-11T04:05:28;35.25;;;20.15;;
7563;SDS011;3823;53.586;10.040;2023-02-11T04:07:54;38.78;;;19.42;;
7563;SDS011;3823;53.586;10.040;2023-02-11T04:10:19;36.97;;;18.13;;
7563;SDS011;3823;53.586;10.040;2023-02-11T04:12:45;45.65;;;19.95;;
7563;SDS011;3823;53.586;10.040;2023-02-11T04:15:11;40.70;;;19.20;;
7563;SDS011;3823;53.586;10.040;2023-02-11T04:17:36;43.83;;;18.35;;
7563;SDS011;3823;53.586;10.040;2023-02-11T04:20:02;34.92;;;18.35;;
7563;SDS011;3823;53.586;10.040;2023-02-11T04:22:28;33.53;;;19.50;;
7563;SDS011;3823;53.586;10.040;2023-02-11T04:24:54;37.00;;;16.20;;
7563;SDS011;3823;53.586;10.040;2023-02-11T04:27:20;41.22;;;18.98;;
7563;SDS011;3823;53.586;10.040;2023-02-11T04:29:45;39.08;;;16.35;;
7563;SDS011;3823;53.586;10.040;2023-02-11T04:32:11;29.52;;;16.05;;
7563;SDS011;3823;53.586;10.040;2023-02-11T04:34:37;37.58;;;16.85;;
7563;SDS011;3823;53.586;10.040;2023-02-11T04:37:03;37.83;;;15.90;;
7563;SDS011;3823;53.586;10.040;2023-02-11T04:39:29;31.98;;;16.52;;
7563;SDS011;3823;53.586;10.040;2023-02-11T04:41:54;32.92;;;16.02;;
7563;SDS011;3823;53.586;10.040;2023-02-11T04:44:20;36.28;;;17.17;;
7563;SDS011;3823;53.586;10.040;2023-02-11T04:46:46;31.25;;;15.88;;
7563;SDS011;3823;53.586;10.040;2023-02-11T04:49:12;35.72;;;15.60;;
7563;SDS011;3823;53.586;10.040;2023-02-11T04:51:38;40.65;;;17.48;;
7563;SDS011;3823;53.586;10.040;2023-02-11T04:54:04;42.78;;;16.27;;
7563;SDS011;3823;53.586;10.040;2023-02-11T04:56:30;29.17;;;15.20;;
7563;SDS011;3823;53.586;10.040;2023-02-11T04:58:56;36.58;;;16.65;;
7563;SDS011;3823;53.586;10.040;2023-02-11T05:01:21;34.50;;;15.73;;
7563;SDS011;3823;53.586;10.040;2023-02-11T05:03:47;29.45;;;14.52;;
7563;SDS011;3823;53.586;10.040;2023-02-11T05:06:13;37.20;;;16.00;;
7563;SDS011;3823;53.586;10.040;2023-02-11T05:08:39;32.53;;;15.85;;
7563;SDS011;3823;53.586;10.040;2023-02-11T05:11:04;33.90;;;16.02;;
7563;SDS011;3823;53.586;10.040;2023-02-11T05:13:31;34.67;;;16.63;;
7563;SDS011;3823;53.586;10.040;2023-02-11T05:15:57;32.08;;;16.00;;
7563;SDS011;3823;53.586;10.040;2023-02-11T05:18:23;24.83;;;14.68;;
7563;SDS011;3823;53.586;10.040;2023-02-11T05:20:48;34.05;;;15.65;;
7563;SDS011;3823;53.586;10.040;2023-02-11T05:23:14;34.60;;;15.40;;
7563;SDS011;3823;53.586;10.040;2023-02-11T05:25:40;32.45;;;16.40;;
7563;SDS011;3823;53.586;10.040;2023-02-11T05:28:05;29.88;;;15.73;;
7563;SDS011;3823;53.586;10.040;2023-02-11T05:30:31;29.15;;;15.73;;
7563;SDS011;3823;53.586;10.040;2023-02-11T05:32:57;27.88;;;15.70;;
7563;SDS011;3823;53.586;10.040;2023-02-11T05:35:22;35.90;;;15.52;;
7563;SDS011;3823;53.586;10.040;2023-02-11T05:37:48;35.55;;;14.43;;
7563;SDS011;3823;53.586;10.040;2023-02-11T05:40:14;33.20;;;15.27;;
7563;SDS011;3823;53.586;10.040;2023-02-11T05:42:40;29.80;;;14.43;;
7563;SDS011;3823;53.586;10.040;2023-02-11T05:45:05;27.38;;;15.05;;
7563;SDS011;3823;53.586;10.040;2023-02-11T05:47:31;27.17;;;15.88;;
7563;SDS011;3823;53.586;10.040;2023-02-11T05:49:57;26.63;;;13.80;;
7563;SDS011;3823;53.586;10.040;2023-02-11T05:52:22;26.73;;;14.77;;
7563;SDS011;3823;53.586;10.040;2023-02-11T05:54:48;26.80;;;14.07;;
7563;SDS011;3823;53.586;10.040;2023-02-11T05:57:14;32.60;;;16.60;;
7563;SDS011;3823;53.586;10.040;2023-02-11T05:59:40;39.70;;;19.20;;
7563;SDS011;3823;53.586;10.040;2023-02-11T06:02:06;40.10;;;19.15;;
7563;SDS011;3823;53.586;10.040;2023-02-11T06:04:32;31.17;;;17.25;;
7563;SDS011;3823;53.586;10.040;2023-02-11T06:06:58;34.55;;;19.92;;
7563;SDS011;3823;53.586;10.040;2023-02-11T06:09:25;34.47;;;19.35;;
7563;SDS011;3823;53.586;10.040;2023-02-11T06:11:50;33.38;;;18.00;;
7563;SDS011;3823;53.586;10.040;2023-02-11T06:14:16;38.17;;;19.52;;
7563;SDS011;3823;53.586;10.040;2023-02-11T06:16:42;32.83;;;18.10;;
7563;SDS011;3823;53.586;10.040;2023-02-11T06:19:08;33.58;;;17.35;;
7563;SDS011;3823;53.586;10.040;2023-02-11T06:21:33;26.90;;;16.15;;
7563;SDS011;3823;53.586;10.040;2023-02-11T06:23:59;34.63;;;16.00;;
7563;SDS011;3823;53.586;10.040;2023-02-11T06:26:24;35.30;;;17.75;;
7563;SDS011;3823;53.586;10.040;2023-02-11T06:28:50;29.65;;;14.88;;
7563;SDS011;3823;53.586;10.040;2023-02-11T06:31:16;20.42;;;13.32;;
7563;SDS011;3823;53.586;10.040;2023-02-11T06:33:42;23.35;;;14.57;;
7563;SDS011;3823;53.586;10.040;2023-02-11T06:36:18;26.55;;;15.07;;
7563;SDS011;3823;53.586;10.040;2023-02-11T06:38:45;28.98;;;15.25;;
7563;SDS011;3823;53.586;10.040;2023-02-11T06:41:12;30.55;;;16.92;;
7563;SDS011;3823;53.586;10.040;2023-02-11T06:43:38;28.45;;;17.73;;
7563;SDS011;3823;53.586;10.040;2023-02-11T06:46:05;40.53;;;20.92;;
7563;SDS011;3823;53.586;10.040;2023-02-11T06:48:31;32.42;;;17.75;;
7563;SDS011;3823;53.586;10.040;2023-02-11T06:51:00;28.05;;;17.92;;
7563;SDS011;3823;53.586;10.040;2023-02-11T06:53:33;30.55;;;17.58;;
7563;SDS011;3823;53.586;10.040;2023-02-11T06:56:01;28.52;;;17.05;;
7563;SDS011;3823;53.586;10.040;2023-02-11T06:58:28;38.05;;;16.83;;
7563;SDS011;3823;53.586;10.040;2023-02-11T07:00:53;27.15;;;15.65;;
7563;SDS011;3823;53.586;10.040;2023-02-11T07:03:19;24.73;;;15.25;;
7563;SDS011;3823;53.586;10.040;2023-02-11T07:05:44;26.90;;;15.82;;
7563;SDS011;3823;53.586;10.040;2023-02-11T07:08:10;31.35;;;14.52;;
7563;SDS011;3823;53.586;10.040;2023-02-11T07:10:36;25.88;;;15.50;;
7563;SDS011;3823;53.586;10.040;2023-02-11T07:13:01;21.88;;;13.82;;
7563;SDS011;3823;53.586;10.040;2023-02-11T07:15:27;21.23;;;13.27;;
7563;SDS011;3823;53.586;10.040;2023-02-11T07:17:52;22.58;;;13.27;;
7563;SDS011;3823;53.586;10.040;2023-02-11T07:20:18;23.48;;;14.73;;
7563;SDS011;3823;53.586;10.040;2023-02-11T07:22:43;28.65;;;13.82;;
7563;SDS011;3823;53.586;10.040;2023-02-11T07:25:09;22.83;;;12.90;;
7563;SDS011;3823;53.586;10.040;2023-02-11T07:27:34;23.95;;;13.85;;
7563;SDS011;3823;53.586;10.040;2023-02-11T07:30:00;28.33;;;15.55;;
7563;SDS011;3823;53.586;10.040;2023-02-11T07:32:26;30.10;;;17.13;;
7563;SDS011;3823;53.586;10.040;2023-02-11T07:34:52;28.27;;;16.77;;
7563;SDS011;3823;53.586;10.040;2023-02-11T07:37:17;39.00;;;17.27;;
7563;SDS011;3823;53.586;10.040;2023-02-11T07:39:43;33.15;;;17.33;;
7563;SDS011;3823;53.586;10.040;2023-02-11T07:42:08;34.47;;;17.95;;
7563;SDS011;3823;53.586;10.040;2023-02-11T07:44:34;32.15;;;18.65;;
7563;SDS011;3823;53.586;10.040;2023-02-11T07:47:01;29.42;;;18.13;;
7563;SDS011;3823;53.586;10.040;2023-02-11T07:49:26;30.45;;;18.30;;
7563;SDS011;3823;53.586;10.040;2023-02-11T07:51:52;31.23;;;18.45;;
7563;SDS011;3823;53.586;10.040;2023-02-11T07:54:18;34.22;;;18.08;;
7563;SDS011;3823;53.586;10.040;2023-02-11T07:56:44;38.20;;;19.15;;
7563;SDS011;3823;53.586;10.040;2023-02-11T07:59:09;33.17;;;17.85;;
7563;SDS011;3823;53.586;10.040;2023-02-11T08:01:35;32.70;;;17.25;;
7563;SDS011;3823;53.586;10.040;2023-02-11T08:04:02;34.08;;;17.77;;
7563;SDS011;3823;53.586;10.040;2023-02-11T08:06:29;30.70;;;18.05;;
7563;SDS011;3823;53.586;10.040;2023-02-11T08:08:56;30.17;;;15.48;;
7563;SDS011;3823;53.586;10.040;2023-02-11T08:11:26;24.77;;;14.60;;
7563;SDS011;3823;53.586;10.040;2023-02-11T08:13:53;26.55;;;15.02;;
7563;SDS011;3823;53.586;10.040;2023-02-11T08:16:20;23.75;;;14.40;;
7563;SDS011;3823;53.586;10.040;2023-02-11T08:18:48;28.10;;;15.40;;
7563;SDS011;3823;53.586;10.040;2023-02-11T08:21:14;36.25;;;15.98;;
7563;SDS011;3823;53.586;10.040;2023-02-11T08:23:40;23.17;;;13.35;;
7563;SDS011;3823;53.586;10.040;2023-02-11T08:26:08;29.85;;;13.95;;
7563;SDS011;3823;53.586;10.040;2023-02-11T08:28:39;27.10;;;14.25;;
7563;SDS011;3823;53.586;10.040;2023-02-11T08:31:10;27.83;;;14.57;;
7563;SDS011;3823;53.586;10.040;2023-02-11T08:33:41;30.00;;;14.68;;
7563;SDS011;3823;53.586;10.040;2023-02-11T08:36:14;23.38;;;14.75;;
7563;SDS011;3823;53.586;10.040;2023-02-11T08:38:47;32.63;;;15.43;;
7563;SDS011;3823;53.586;10.040;2023-02-11T08:41:13;36.30;;;14.30;;
7563;SDS011;3823;53.586;10.040;2023-02-11T08:43:39;26.20;;;15.05;;
7563;SDS011;3823;53.586;10.040;2023-02-11T08:46:06;24.73;;;14.27;;
7563;SDS011;3823;53.586;10.040;2023-02-11T08:48:33;26.48;;;15.07;;
7563;SDS011;3823;53.586;10.040;2023-02-11T08:50:59;35.33;;;14.60;;
7563;SDS011;3823;53.586;10.040;2023-02-11T08:53:25;29.98;;;12.98;;
7563;SDS011;3823;53.586;10.040;2023-02-11T08:55:51;21.05;;;14.27;;
7563;SDS011;3823;53.586;10.040;2023-02-11T08:58:18;24.38;;;13.98;;
7563;SDS011;3823;53.586;10.040;2023-02-11T09:00:45;26.27;;;14.07;;
7563;SDS011;3823;53.586;10.040;2023-02-11T09:03:11;30.25;;;15.48;;
7563;SDS011;3823;53.586;10.040;2023-02-11T09:05:45;28.95;;;14.50;;
7563;SDS011;3823;53.586;10.040;2023-02-11T09:08:12;29.48;;;13.45;;
7563;SDS011;3823;53.586;10.040;2023-02-11T09:10:40;32.33;;;13.43;;
7563;SDS011;3823;53.586;10.040;2023-02-11T09:13:06;30.02;;;13.85;;
7563;SDS011;3823;53.586;10.040;2023-02-11T09:15:32;25.48;;;12.75;;
7563;SDS011;3823;53.586;10.040;2023-02-11T09:17:58;20.83;;;13.10;;
7563;SDS011;3823;53.586;10.040;2023-02-11T09:20:24;23.77;;;13.18;;
7563;SDS011;3823;53.586;10.040;2023-02-11T09:22:51;21.98;;;12.68;;
7563;SDS011;3823;53.586;10.040;2023-02-11T09:25:17;29.80;;;13.65;;
7563;SDS011;3823;53.586;10.040;2023-02-11T09:27:42;19.17;;;12.25;;
7563;SDS011;3823;53.586;10.040;2023-02-11T09:30:08;36.70;;;14.73;;
7563;SDS011;3823;53.586;10.040;2023-02-11T09:32:34;19.77;;;11.07;;
7563;SDS011;3823;53.586;10.040;2023-02-11T09:35:00;21.95;;;12.65;;
7563;SDS011;3823;53.586;10.040;2023-02-11T09:37:25;30.77;;;12.20;;
7563;SDS011;3823;53.586;10.040;2023-02-11T09:39:51;19.45;;;12.25;;
7563;SDS011;3823;53.586;10.040;2023-02-11T09:45:11;23.17;;;12.25;;
7563;SDS011;3823;53.586;10.040;2023-02-11T09:47:53;26.58;;;12.40;;
7563;SDS011;3823;53.586;10.040;2023-02-11T09:50:23;28.05;;;13.23;;
7563;SDS011;3823;53.586;10.040;2023-02-11T09:53:27;23.08;;;10.90;;
7563;SDS011;3823;53.586;10.040;2023-02-11T09:55:56;31.45;;;11.52;;
7563;SDS011;3823;53.586;10.040;2023-02-11T09:58:25;19.85;;;10.40;;
7563;SDS011;3823;53.586;10.040;2023-02-11T10:00:56;22.75;;;11.25;;
7563;SDS011;3823;53.586;10.040;2023-02-11T10:06:44;23.58;;;10.85;;
7563;SDS011;3823;53.586;10.040;2023-02-11T10:09:55;32.67;;;11.40;;
7563;SDS011;3823;53.586;10.040;2023-02-11T10:12:33;19.33;;;9.05;;
7563;SDS011;3823;53.586;10.040;2023-02-11T10:20:51;17.83;;;7.95;;
7563;SDS011;3823;53.586;10.040;2023-02-11T10:23:33;22.52;;;8.73;;
7563;SDS011;3823;53.586;10.040;2023-02-11T10:26:02;21.02;;;10.27;;
7563;SDS011;3823;53.586;10.040;2023-02-11T10:28:34;20.83;;;8.30;;
7563;SDS011;3823;53.586;10.040;2023-02-11T10:36:12;20.67;;;8.18;;
7563;SDS011;3823;53.586;10.040;2023-02-11T10:38:40;23.75;;;7.88;;
7563;SDS011;3823;53.586;10.040;2023-02-11T10:41:08;22.42;;;9.20;;
7563;SDS011;3823;53.586;10.040;2023-02-11T10:43:40;19.00;;;8.43;;
7563;SDS011;3823;53.586;10.040;2023-02-11T10:46:08;23.08;;;8.35;;
7563;SDS011;3823;53.586;10.040;2023-02-11T10:48:45;22.35;;;7.40;;
7563;SDS011;3823;53.586;10.040;2023-02-11T10:51:24;11.98;;;7.95;;
7563;SDS011;3823;53.586;10.040;2023-02-11T10:56:36;15.18;;;7.32;;
7563;SDS011;3823;53.586;10.040;2023-02-11T10:59:04;14.13;;;6.85;;
7563;SDS011;3823;53.586;10.040;2023-02-11T11:01:45;13.60;;;6.75;;
7563;SDS011;3823;53.586;10.040;2023-02-11T11:06:55;18.33;;;7.82;;
7563;SDS011;3823;53.586;10.040;2023-02-11T11:09:28;16.75;;;6.80;;
7563;SDS011;3823;53.586;10.040;2023-02-11T11:11:55;11.32;;;5.80;;
7563;SDS011;3823;53.586;10.040;2023-02-11T11:14:20;18.17;;;6.22;;
7563;SDS011;3823;53.586;10.040;2023-02-11T11:16:52;21.08;;;6.72;;
7563;SDS011;3823;53.586;10.040;2023-02-11T11:19:20;16.70;;;6.18;;
7563;SDS011;3823;53.586;10.040;2023-02-11T11:21:49;11.40;;;6.28;;
7563;SDS011;3823;53.586;10.040;2023-02-11T11:24:31;12.40;;;5.97;;
7563;SDS011;3823;53.586;10.040;2023-02-11T11:27:03;22.98;;;6.88;;
7563;SDS011;3823;53.586;10.040;2023-02-11T11:29:37;13.13;;;7.15;;
7563;SDS011;3823;53.586;10.040;2023-02-11T11:32:11;11.75;;;6.20;;
7563;SDS011;3823;53.586;10.040;2023-02-11T11:34:48;10.05;;;6.35;;
7563;SDS011;3823;53.586;10.040;2023-02-11T11:37:23;15.20;;;7.18;;
7563;SDS011;3823;53.586;10.040;2023-02-11T11:40:36;8.02;;;4.22;;
7563;SDS011;3823;53.586;10.040;2023-02-11T11:42:38;8.50;;;5.45;;
7563;SDS011;3823;53.586;10.040;2023-02-11T11:47:53;12.55;;;5.35;;
7563;SDS011;3823;53.586;10.040;2023-02-11T11:53:20;7.00;;;4.53;;
7563;SDS011;3823;53.586;10.040;2023-02-11T11:55:49;9.38;;;4.55;;
7563;SDS011;3823;53.586;10.040;2023-02-11T11:58:23;13.77;;;4.78;;
7563;SDS011;3823;53.586;10.040;2023-02-11T12:00:55;19.13;;;6.70;;
7563;SDS011;3823;53.586;10.040;2023-02-11T12:06:17;7.68;;;4.47;;
7563;SDS011;3823;53.586;10.040;2023-02-11T12:11:29;17.55;;;6.88;;
7563;SDS011;3823;53.586;10.040;2023-02-11T12:41:33;6.18;;;4.03;;
7563;SDS011;3823;53.586;10.040;2023-02-11T12:44:43;9.02;;;4.13;;
7563;SDS011;3823;53.586;10.040;2023-02-11T12:50:25;9.13;;;4.30;;
7563;SDS011;3823;53.586;10.040;2023-02-11T12:53:08;9.32;;;3.28;;
7563;SDS011;3823;53.586;10.040;2023-02-11T12:55:54;5.97;;;3.88;;
7563;SDS011;3823;53.586;10.040;2023-02-11T12:58:25;9.77;;;3.67;;
7563;SDS011;3823;53.586;10.040;2023-02-11T13:00:56;10.85;;;3.38;;
7563;SDS011;3823;53.586;10.040;2023-02-11T13:06:06;16.77;;;4.53;;
7563;SDS011;3823;53.586;10.040;2023-02-11T13:08:44;13.00;;;4.70;;
7563;SDS011;3823;53.586;10.040;2023-02-11T13:11:23;12.45;;;4.75;;
7563;SDS011;3823;53.586;10.040;2023-02-11T13:13:56;10.27;;;4.30;;
7563;SDS011;3823;53.586;10.040;2023-02-11T13:16:43;10.88;;;4.25;;
7563;SDS011;3823;53.586;10.040;2023-02-11T13:27:49;9.95;;;3.67;;
7563;SDS011;3823;53.586;10.040;2023-02-11T13:30:29;10.05;;;4.30;;
7563;SDS011;3823;53.586;10.040;2023-02-11T13:35:34;11.23;;;3.83;;
7563;SDS011;3823;53.586;10.040;2023-02-11T13:38:01;12.02;;;4.35;;
7563;SDS011;3823;53.586;10.040;2023-02-11T13:40:30;9.25;;;3.90;;
7563;SDS011;3823;53.586;10.040;2023-02-11T13:43:04;19.17;;;5.10;;
7563;SDS011;3823;53.586;10.040;2023-02-11T13:45:43;15.18;;;5.45;;
7563;SDS011;3823;53.586;10.040;2023-02-11T13:48:15;14.45;;;4.55;;
7563;SDS011;3823;53.586;10.040;2023-02-11T13:50:47;19.33;;;4.95;;
7563;SDS011;3823;53.586;10.040;2023-02-11T13:53:14;13.85;;;5.15;;
7563;SDS011;3823;53.586;10.040;2023-02-11T13:55:44;23.80;;;4.60;;
7563;SDS011;3823;53.586;10.040;2023-02-11T14:19:31;11.77;;;4.40;;
7563;SDS011;3823;53.586;10.040;2023-02-11T14:24:50;20.17;;;7.32;;
7563;SDS011;3823;53.586;10.040;2023-02-11T14:33:04;18.92;;;6.05;;
7563;SDS011;3823;53.586;10.040;2023-02-11T14:35:48;11.23;;;3.53;;
7563;SDS011;3823;53.586;10.040;2023-02-11T14:38:45;14.40;;;4.18;;
7563;SDS011;3823;53.586;10.040;2023-02-11T14:41:25;14.32;;;4.43;;
7563;SDS011;3823;53.586;10.040;2023-02-11T14:46:21;12.00;;;4.22;;
7563;SDS011;3823;53.586;10.040;2023-02-11T14:48:49;14.15;;;4.65;;
7563;SDS011;3823;53.586;10.040;2023-02-11T14:51:22;10.88;;;4.40;;
7563;SDS011;3823;53.586;10.040;2023-02-11T14:53:56;12.52;;;4.13;;
7563;SDS011;3823;53.586;10.040;2023-02-11T14:56:27;11.80;;;2.90;;
7563;SDS011;3823;53.586;10.040;2023-02-11T14:58:58;13.50;;;3.53;;
7563;SDS011;3823;53.586;10.040;2023-02-11T15:03:52;10.93;;;4.38;;
7563;SDS011;3823;53.586;10.040;2023-02-11T15:06:39;7.18;;;3.33;;
7563;SDS011;3823;53.586;10.040;2023-02-11T15:09:13;5.88;;;3.80;;
7563;SDS011;3823;53.586;10.040;2023-02-11T15:11:53;21.70;;;4.60;;
7563;SDS011;3823;53.586;10.040;2023-02-11T15:14:29;7.20;;;3.40;;
7563;SDS011;3823;53.586;10.040;2023-02-11T15:17:00;16.10;;;3.83;;
7563;SDS011;3823;53.586;10.040;2023-02-11T15:19:38;12.73;;;4.15;;
7563;SDS011;3823;53.586;10.040;2023-02-11T15:22:19;7.75;;;2.92;;
7563;SDS011;3823;53.586;10.040;2023-02-11T15:25:30;8.88;;;2.97;;
7563;SDS011;3823;53.586;10.040;2023-02-11T15:27:47;4.63;;;2.35;;
7563;SDS011;3823;53.586;10.040;2023-02-11T15:32:50;4.65;;;2.92;;
7563;SDS011;3823;53.586;10.040;2023-02-11T15:35:23;3.30;;;2.25;;
7563;SDS011;3823;53.586;10.040;2023-02-11T15:37:52;9.77;;;3.58;;
7563;SDS011;3823;53.586;10.040;2023-02-11T15:40:20;10.30;;;4.03;;
7563;SDS011;3823;53.586;10.040;2023-02-11T15:42:57;12.63;;;4.18;;
7563;SDS011;3823;53.586;10.040;2023-02-11T15:48:23;16.80;;;5.00;;
7563;SDS011;3823;53.586;10.040;2023-02-11T15:50:53;24.42;;;6.93;;
7563;SDS011;3823;53.586;10.040;2023-02-11T15:53:24;22.75;;;5.30;;
7563;SDS011;3823;53.586;10.040;2023-02-11T15:56:16;12.80;;;4.90;;
7563;SDS011;3823;53.586;10.040;2023-02-11T15:58:48;18.10;;;5.38;;
7563;SDS011;3823;53.586;10.040;2023-02-11T16:01:15;13.88;;;5.03;;
7563;SDS011;3823;53.586;10.040;2023-02-11T16:03:41;21.40;;;5.57;;
7563;SDS011;3823;53.586;10.040;2023-02-11T16:06:17;13.18;;;5.40;;
7563;SDS011;3823;53.586;10.040;2023-02-11T16:11:31;12.85;;;6.18;;
7563;SDS011;3823;53.586;10.040;2023-02-11T16:13:59;16.10;;;4.00;;
7563;SDS011;3823;53.586;10.040;2023-02-11T16:16:29;10.82;;;4.60;;
7563;SDS011;3823;53.586;10.040;2023-02-11T16:18:58;8.88;;;3.97;;
7563;SDS011;3823;53.586;10.040;2023-02-11T16:21:43;17.45;;;4.85;;
7563;SDS011;3823;53.586;10.040;2023-02-11T16:24:20;15.10;;;4.43;;
7563;SDS011;3823;53.586;10.040;2023-02-11T16:26:56;13.75;;;4.35;;
7563;SDS011;3823;53.586;10.040;2023-02-11T16:29:25;16.95;;;4.05;;
7563;SDS011;3823;53.586;10.040;2023-02-11T16:34:55;11.13;;;4.47;;
7563;SDS011;3823;53.586;10.040;2023-02-11T16:37:22;17.75;;;6.68;;
7563;SDS011;3823;53.586;10.040;2023-02-11T16:39:48;13.18;;;4.57;;
7563;SDS011;3823;53.586;10.040;2023-02-11T16:42:17;14.45;;;5.00;;
7563;SDS011;3823;53.586;10.040;2023-02-11T16:44:42;15.98;;;5.72;;
7563;SDS011;3823;53.586;10.040;2023-02-11T16:47:11;20.90;;;6.57;;
7563;SDS011;3823;53.586;10.040;2023-02-11T16:49:43;23.60;;;7.53;;
7563;SDS011;3823;53.586;10.040;2023-02-11T16:52:12;16.65;;;7.30;;
7563;SDS011;3823;53.586;10.040;2023-02-11T16:54:40;29.05;;;6.68;;
7563;SDS011;3823;53.586;10.040;2023-02-11T16:57:22;18.88;;;6.72;;
7563;SDS011;3823;53.586;10.040;2023-02-11T16:59:49;25.92;;;7.75;;
7563;SDS011;3823;53.586;10.040;2023-02-11T17:04:54;23.55;;;7.60;;
7563;SDS011;3823;53.586;10.040;2023-02-11T17:07:21;27.40;;;7.75;;
7563;SDS011;3823;53.586;10.040;2023-02-11T17:09:47;30.65;;;9.20;;
7563;SDS011;3823;53.586;10.040;2023-02-11T17:12:12;21.67;;;8.57;;
7563;SDS011;3823;53.586;10.040;2023-02-11T17:14:38;20.92;;;6.85;;
7563;SDS011;3823;53.586;10.040;2023-02-11T17:17:03;15.52;;;7.57;;
7563;SDS011;3823;53.586;10.040;2023-02-11T17:19:29;20.75;;;8.65;;
7563;SDS011;3823;53.586;10.040;2023-02-11T17:21:55;19.02;;;7.13;;
7563;SDS011;3823;53.586;10.040;2023-02-11T17:24:20;16.15;;;7.22;;
7563;SDS011;3823;53.586;10.040;2023-02-11T17:26:47;20.45;;;7.47;;
7563;SDS011;3823;53.586;10.040;2023-02-11T17:29:14;13.45;;;5.93;;
7563;SDS011;3823;53.586;10.040;2023-02-11T17:31:44;17.92;;;6.70;;
7563;SDS011;3823;53.586;10.040;2023-02-11T17:34:10;16.38;;;6.85;;
7563;SDS011;3823;53.586;10.040;2023-02-11T17:36:36;17.20;;;7.57;;
7563;SDS011;3823;53.586;10.040;2023-02-11T17:39:02;19.70;;;6.95;;
7563;SDS011;3823;53.586;10.040;2023-02-11T17:41:29;22.70;;;8.55;;
7563;SDS011;3823;53.586;10.040;2023-02-11T17:43:58;9.95;;;6.20;;